Aviation Digital Data Service (ADDS)

Output produced by METARs form (2014 UTC 23 January 2020)
found at http://aviationweather.gov/metar/data/
 
KBOS 231954Z 26006KT 10SM SCT130 BKN230 09/M12 A3031 RMK AO2 SLP262 T00941122
KBOS 231726Z 2318/2424 23007KT P6SM SCT250 
     FM240200 26004KT P6SM BKN250 
     FM240800 29005KT P6SM BKN200 
     FM241500 02005KT P6SM FEW015 
     FM242000 06007KT P6SM BKN015
       
KLGA 231951Z 00000KT 10SM OVC250 08/M10 A3034 RMK AO2 SLP272 T00781100
KLGA 231742Z 2318/2424 23007KT P6SM BKN250 
     FM240200 VRB03KT P6SM BKN250 
     FM241400 05005KT P6SM BKN200 
     FM241900 08007KT P6SM BKN200
       
KJFK 231951Z 18003KT 10SM OVC250 06/M04 A3035 RMK AO2 SLP276 T00611044 $
KJFK 231742Z 2318/2424 24008KT P6SM BKN250 
     FM240200 VRB04KT P6SM BKN250 
     FM241400 06005KT P6SM BKN200 
     FM241900 09008KT P6SM BKN200
       
KEWR 231951Z VRB03KT 10SM FEW230 OVC260 08/M09 A3033 RMK AO2 SLP270 T00781089
KEWR 231742Z 2318/2424 24007KT P6SM BKN250 
     FM240000 VRB04KT P6SM BKN250 
     FM241500 06005KT P6SM BKN200
       
KPHL 231954Z 00000KT 10SM FEW200 OVC240 07/M11 A3035 RMK AO2 SLP275 T00671106
KPHL 231738Z 2318/2424 VRB03KT P6SM BKN250 
     FM241500 05005KT P6SM BKN200
       
KBWI 231954Z 00000KT 10SM FEW110 OVC160 05/M06 A3034 RMK AO2 SLP275 T00501056
KBWI 231736Z 2318/2424 VRB03KT P6SM OVC250 
     FM232100 07004KT P6SM OVC250 
     FM240700 VRB02KT P6SM BKN050 
     FM241200 05003KT P6SM BKN050 
     FM242000 05004KT P6SM OVC025
       
KDCA 231952Z 00000KT 10SM OVC190 06/M04 A3035 RMK AO2 SLP278 T00611044
KDCA 231736Z 2318/2424 VRB03KT P6SM OVC250 
     FM232000 12004KT P6SM OVC250 
     FM240600 03003KT P6SM OVC050 
     FM241700 05003KT P6SM OVC025
       
KIAD 231952Z 16006KT 10SM FEW100 BKN150 OVC250 05/M08 A3032 RMK AO2 SLP271 T00501078
KIAD 231736Z 2318/2424 VRB03KT P6SM OVC250 
     FM232000 13003KT P6SM OVC250 
     FM240500 04002KT P6SM OVC050 
     FM241800 07006KT P6SM OVC025 
     FM242100 08006KT P6SM OVC015
       
KCLT 231952Z 02006KT 10SM FEW120 SCT170 BKN250 09/M06 A3024 RMK AO2 SLP241 T00941056
KCLT 231945Z 2320/2424 04006KT P6SM BKN150 BKN250 
     FM240600 06008KT P6SM OVC027 
     FM240900 03008KT 5SM -SHRA BR OVC007 
     FM241700 08008KT 3SM -SHRA BR OVC005 WS020/15030KT 
     FM242000 12010G18KT 3SM -SHRA BR OVC005 WS020/16040KT
       
KATL 231952Z 11012KT 10SM FEW048 BKN060 OVC075 08/01 A3011 RMK AO2 RAE46 SLP202 P0000 T00830006
KATL 231947Z 2320/2424 12010KT P6SM -SHRA BKN045 OVC060 
     FM232200 09009KT P6SM -SHRA OVC030 
     FM240200 10010KT 6SM -SHRA BR OVC010 
     FM240500 10010KT 4SM -SHRA BR OVC005 
     FM241200 12008KT 2SM BR VCSH OVC007 
     FM241700 24007KT P6SM BKN015 
     FM241900 24007KT P6SM BKN080
       
KTPA 231953Z 05007KT 10SM FEW030 SCT060 OVC190 21/13 A3004 RMK AO2 SLP173 T02110133 $
KTPA 231736Z 2318/2424 06006KT P6SM SCT040 BKN250 
     FM232100 08005KT P6SM BKN040 BKN250 
     FM240700 11004KT P6SM BKN004 
     FM241500 15005KT P6SM FEW010 SCT040 
     FM241900 21007KT P6SM SCT040 BKN250
       
KMCO 231953Z 06010KT 3SM R35L/6000VP6000FT -RA BR FEW008 BKN024 OVC032 18/16 A3007 RMK AO2 SLP180 P0003 T01830161
KMCO 231958Z 2320/2424 05011KT P6SM VCSH BKN035 BKN040 
     TEMPO 2320/2321 3SM -RA FEW008 BKN024 OVC035 
     FM240000 07007KT P6SM SCT035 BKN060 BKN100 
     FM241500 17007KT P6SM SCT050 SCT120 BKN250 
     FM241800 20009KT P6SM SCT040 BKN250
       
KMIA 231953Z 07011KT 8SM -RA BKN030 BKN045 BKN080 22/17 A2999 RMK AO2 RAB50 SLP154 P0000 T02170167
KMIA 231734Z 2318/2424 10011KT P6SM VCSH SCT035 BKN050 
     FM240000 10005KT P6SM SCT005 SCT025 
     FM241500 13010KT P6SM SCT035 SCT050
       
KFLL 231953Z 10016KT 10SM FEW025 SCT050 BKN060 22/17 A2997 RMK AO2 SLP149 T02170172
KFLL 231734Z 2318/2424 09012KT P6SM VCSH SCT035 BKN050 
     FM240000 10008KT P6SM SCT005 SCT025 
     FM241400 13010KT P6SM SCT035 SCT050
       
KDTW 231953Z 09004KT 9SM FEW070 OVC100 02/M04 A3016 RMK AO2 SLP220 T00221039
KDTW 231725Z 2318/2424 16007KT P6SM OVC120 
     FM240000 12005KT P6SM OVC080 
     FM240700 09005KT P6SM OVC050 
     TEMPO 2408/2412 P6SM -SHRA OVC025 
     FM241400 08010KT 5SM -RA BR OVC025 
     FM242100 09008KT 2SM -RA BR OVC015
       
KORD 231951Z 16005KT 2 1/2SM -SN BR OVC010 01/M01 A3002 RMK AO2 SLP171 CIG 007V013 P0001 T00061006
KORD 231747Z 2318/2424 17010KT 4SM -SN BR OVC009 
     TEMPO 2318/2320 1 1/2SM -SN OVC007 
     FM232100 14007KT 3SM -SNDZ BR OVC006 
     FM240500 10010KT 1SM -SNRA BR OVC008 
     FM241100 07010KT 3SM -RASN BR SCT004 OVC006 
     FM241800 05009KT 3SM -RA SCT004 OVC007
       
KMDW 231953Z 17007KT 2SM -SN BR BKN009 OVC012 01/M01 A3003 RMK AO2 SLP180 P0000 T00111006 $
KMDW 231747Z 2318/2424 17010KT 4SM -SN BR SCT009 OVC012 
     TEMPO 2318/2320 1 1/2SM -SN OVC009 
     FM232100 14007KT 3SM -SNDZ BR OVC009 
     FM240500 10010KT 1SM -RASN BR OVC006 
     FM241100 07010KT 3SM -RA BR SCT004 OVC006 
     FM241800 05009KT 3SM -RA SCT004 OVC007
       
KMSP 231953Z 07007KT 7SM OVC015 01/M03 A3002 RMK AO2 SLP174 T00061028
KMSP 231839Z 2319/2424 06006KT 6SM HZ SCT008 OVC013 
     FM232200 04006KT 5SM BR VCSH SCT008 OVC010 
     FM240100 03005KT 2SM -SN BR OVC007 
     FM240600 02004KT 3SM BR OVC005 
     FM241400 36007KT 5SM BR OVC008
       
KMEM 231954Z 14009KT 4SM -RA BR BKN008 OVC017 06/04 A2991 RMK AO2 SLP129 P0009 T00560044
KMEM 231939Z 2320/2424 15007KT 4SM -RA BR OVC008 
     FM240200 20005KT 3SM -DZ BR OVC005 
     FM240600 23005KT P6SM OVC008 
     FM241500 26010G15KT P6SM VCSH OVC015 
     FM242100 26010G15KT P6SM BKN025
       
KDFW 231953Z 33007KT 10SM FEW023 BKN130 13/06 A2999 RMK AO2 SLP155 T01280061
KDFW 231726Z 2318/2424 34012KT P6SM BKN012 
     FM231900 34014KT P6SM SCT012 
     FM232000 34014KT P6SM SCT120 
     FM240100 29006KT P6SM FEW150
       
KIAH 231953Z 33013KT 10SM OVC022 16/11 A2996 RMK AO2 SLP144 T01560106
KIAH 232004Z 2320/2424 33013KT P6SM OVC022 
     TEMPO 2320/2322 34012G19KT SCT023 
     FM232200 34013KT P6SM FEW024 
     FM240000 34005KT P6SM SKC 
     FM241800 VRB04KT P6SM SKC
       
KDEN 231953Z 36009KT 10SM BKN090 BKN200 04/M11 A3009 RMK AO2 SLP190 T00441106
KDEN 231927Z 2319/2424 35010KT P6SM BKN090 BKN220 
     FM240100 03008KT P6SM FEW120 BKN220 
     FM240300 07006KT P6SM FEW120 BKN220 
     FM240500 15007KT P6SM FEW120 BKN220 
     FM240700 21007KT P6SM SCT220 
     FM241700 10007KT P6SM SCT220
       
KSLC 231954Z 00000KT 10SM FEW045 BKN065 BKN080 09/01 A3028 RMK AO2 SLP247 T00890011
KSLC 232008Z 2320/2424 33006KT P6SM SCT030 BKN070 
     FM240300 15006KT P6SM SCT020 BKN040 
     FM242000 33006KT 6SM -RA BR SCT010 BKN035
       
KSEA 231959Z 17006KT 3SM -RA BR FEW008 BKN028 OVC035 12/11 A2994 RMK AO2 P0000 T01170106
KSEA 231723Z 2318/2424 18010KT 4SM -RA BR SCT015 OVC025 
     FM232300 17009KT 5SM -RA BR SCT010 OVC015 
     FM240900 20009KT P6SM -SHRA OVC020
       
KSFO 231956Z 06003KT 10SM SCT180 BKN200 13/09 A3022 RMK AO2 SLP233 T01280089
KSFO 231720Z 2318/2424 06004KT P6SM FEW010 BKN150 
     FM232100 04005KT P6SM FEW015 FEW080 BKN120 
     FM240100 31006KT P6SM FEW010 FEW050 SCT080 
     FM240800 28004KT P6SM SCT006 SCT040 
     FM241200 VRB03KT 6SM BR BKN006 BKN030 OVC040 
     FM241800 06004KT 6SM BR VCSH SCT010 SCT025 BKN040
       
KLAX 231953Z 26006KT 10SM FEW045 FEW080 SCT250 19/12 A3010 RMK AO2 SLP191 T01940122
KLAX 231733Z 2318/2424 25004KT P6SM FEW010 FEW160 
     FM231900 26010KT P6SM SCT250 
     FM240400 VRB03KT P6SM BKN250 
     FM241200 08003KT P6SM BKN250 
     FM242000 27008KT P6SM BKN250
       
KSAN 231951Z 30005KT 9SM SCT250 21/13 A3009 RMK AO2 SLP189 T02060128 PNO $
KSAN 231738Z 2318/2424 VRB04KT P6SM FEW250 
     FM232100 23009KT P6SM SKC 
     FM240100 VRB04KT P6SM FEW010 SCT250 
     FM242100 23009KT P6SM SKC
       
KLAS 231956Z 05004KT 10SM FEW250 17/01 A3021 RMK AO2 SLP225 T01670006
KLAS 231720Z 2318/2424 VRB03KT P6SM FEW250 
     FM232000 06005KT P6SM SCT250 
     FM240300 25006KT P6SM BKN250 
     FM241500 VRB03KT P6SM OVC250
       
KPHX 231951Z 00000KT 10SM FEW250 18/07 A3008 RMK AO2 SLP177 T01830067
KPHX 231720Z 2318/2424 10005KT P6SM SKC 
     FM232200 27004KT P6SM FEW250 
     FM240600 10004KT P6SM SCT250 
     FM242300 28004KT P6SM OVC250
       
KSDF 231956Z 14006KT 10SM -RA OVC060 10/M03 A3009 RMK AO2 RAB46 SLP191 P0000 T01001028
KSDF 231720Z 2318/2424 16006KT P6SM SCT040 OVC080 
     FM232100 14006KT P6SM VCSH SCT013 OVC030 
     FM232200 13006KT 5SM BR SCT008 OVC024 
     TEMPO 2400/2403 2SM RA BKN017 
     FM240300 12007KT 5SM RA SCT003 OVC015 
     FM241400 16006KT 3SM -RA SCT001 OVC007 
     FM241700 20007KT 6SM BR SCT002 OVC007 
     PROB30 2417/2419 4SM -RA BKN002 BKN003
       
KIND 231954Z 13004KT 10SM FEW044 OVC085 07/M06 A3005 RMK AO2 SLP180 T00721056
KIND 231720Z 2318/2424 17008KT P6SM OVC060 
     FM232300 13005KT P6SM VCSH OVC030 
     FM240200 11007KT 5SM -RA OVC015 
     FM240800 11008KT 2SM -RA OVC008 
     FM241800 15006KT 4SM -RA OVC003
       
KCVG 231952Z 14006KT 10SM OVC085 08/M07 A3011 RMK AO2 SLP199 T00781067
KCVG 231753Z 2318/2424 12006KT P6SM OVC100 
     FM232300 11008KT P6SM VCSH OVC040 
     FM240400 11010KT 5SM -RA OVC025 
     FM241000 12009KT 4SM -RA OVC008 
     FM241700 15007KT P6SM -RA OVC012 
     FM242000 19007KT P6SM VCSH BKN012